createdAt,value
2019-05-12T00:00:21.280Z,3.20
2019-05-12T00:02:49.340Z,3.03
2019-05-12T00:05:18.446Z,3.53
2019-05-12T00:07:48.640Z,3.33
2019-05-12T00:10:18.408Z,3.40
2019-05-12T00:12:48.351Z,3.27
2019-05-12T00:15:19.215Z,3.40
2019-05-12T00:17:48.087Z,3.10
2019-05-12T00:20:18.133Z,4.07
2019-05-12T00:22:50.233Z,3.23
2019-05-12T00:25:19.307Z,2.63
2019-05-12T00:27:48.718Z,3.37
2019-05-12T00:30:35.170Z,3.23
2019-05-12T00:33:04.020Z,3.60
2019-05-12T00:35:32.594Z,3.13
2019-05-12T00:38:00.758Z,4.03
2019-05-12T00:40:28.831Z,3.53
2019-05-12T00:42:57.712Z,3.60
2019-05-12T00:45:28.912Z,3.30
2019-05-12T00:47:58.269Z,4.20
2019-05-12T00:50:28.638Z,3.53
2019-05-12T00:52:57.997Z,3.60
2019-05-12T00:55:28.617Z,3.33
2019-05-12T00:57:58.171Z,4.07
2019-05-12T01:00:29.481Z,3.63
2019-05-12T01:02:58.045Z,3.47
2019-05-12T01:05:26.438Z,3.70
2019-05-12T01:07:54.514Z,3.70
2019-05-12T01:10:22.703Z,3.60
2019-05-12T01:12:51.772Z,3.40
2019-05-12T01:15:20.179Z,3.70
2019-05-12T01:17:48.310Z,3.77
2019-05-12T01:20:17.985Z,3.90
2019-05-12T01:22:50.379Z,3.47
2019-05-12T01:25:17.640Z,3.93
2019-05-12T01:27:48.651Z,3.83
2019-05-12T01:30:18.106Z,3.77
2019-05-12T01:32:48.395Z,3.43
2019-05-12T01:35:18.462Z,4.10
2019-05-12T01:37:48.398Z,4.13
2019-05-12T01:40:18.881Z,3.80
2019-05-12T01:42:48.344Z,4.37
2019-05-12T01:45:17.978Z,3.47
2019-05-12T01:47:48.425Z,4.00
2019-05-12T01:50:17.815Z,3.23
2019-05-12T01:52:47.827Z,3.33
2019-05-12T01:55:18.434Z,3.70
2019-05-12T01:57:48.465Z,3.90
2019-05-12T02:00:18.267Z,4.10
2019-05-12T02:02:48.039Z,3.90
2019-05-12T02:05:18.346Z,4.00
2019-05-12T02:07:49.439Z,4.40
2019-05-12T02:10:18.170Z,4.43
2019-05-12T02:12:48.875Z,4.07
2019-05-12T02:15:18.339Z,4.53
2019-05-12T02:17:48.168Z,4.53
2019-05-12T02:20:18.156Z,4.30
2019-05-12T02:22:47.787Z,3.97
2019-05-12T02:25:18.510Z,4.83
2019-05-12T02:27:47.713Z,4.87
2019-05-12T02:30:20.287Z,4.50
2019-05-12T02:32:53.168Z,4.43
2019-05-12T02:35:17.614Z,4.27
2019-05-12T02:37:45.730Z,4.10
2019-05-12T02:40:15.275Z,4.73
2019-05-12T02:42:46.319Z,4.23
2019-05-12T02:45:15.499Z,4.60
2019-05-12T02:47:45.670Z,4.00
2019-05-12T02:50:26.938Z,4.03
2019-05-12T02:52:55.062Z,4.30
2019-05-12T02:55:25.705Z,4.23
2019-05-12T02:57:55.255Z,4.00
2019-05-12T03:00:24.294Z,3.83
2019-05-12T03:02:55.228Z,3.90
2019-05-12T03:05:24.807Z,3.50
2019-05-12T03:07:56.774Z,3.87
2019-05-12T03:10:25.335Z,3.90
2019-05-12T03:12:54.955Z,4.27
2019-05-12T03:15:25.110Z,3.83
2019-05-12T03:17:54.626Z,3.77
2019-05-12T03:20:24.160Z,3.97
2019-05-12T03:22:55.147Z,3.73
2019-05-12T03:25:26.121Z,4.03
2019-05-12T03:27:54.568Z,3.80
2019-05-12T03:30:28.344Z,3.90
2019-05-12T03:32:57.834Z,3.70
2019-05-12T03:35:32.729Z,4.00
2019-05-12T03:37:54.759Z,3.63
2019-05-12T03:40:24.884Z,3.67
2019-05-12T03:42:54.930Z,3.63
2019-05-12T03:45:25.178Z,4.13
2019-05-12T03:47:54.859Z,3.60
2019-05-12T03:50:24.355Z,3.60
2019-05-12T03:52:56.432Z,3.40
2019-05-12T03:55:35.036Z,3.23
2019-05-12T03:57:55.123Z,4.07
2019-05-12T04:00:24.772Z,3.20
2019-05-12T04:02:55.591Z,3.77
2019-05-12T04:05:24.357Z,3.20
2019-05-12T04:07:54.722Z,3.33
2019-05-12T04:10:24.774Z,3.03
2019-05-12T04:12:54.841Z,3.27
2019-05-12T04:15:25.470Z,3.23
2019-05-12T04:17:54.338Z,3.80
2019-05-12T04:20:25.461Z,3.40
2019-05-12T04:22:54.759Z,2.80
2019-05-12T04:25:24.962Z,2.83
2019-05-12T04:27:54.212Z,3.10
2019-05-12T04:30:25.043Z,2.50
2019-05-12T04:32:55.314Z,2.70
2019-05-12T04:35:25.135Z,2.57
2019-05-12T04:37:55.326Z,2.60
2019-05-12T04:40:24.739Z,3.03
2019-05-12T04:42:54.866Z,2.90
2019-05-12T04:45:25.604Z,2.37
2019-05-12T04:47:55.268Z,2.60
2019-05-12T04:50:24.581Z,2.73
2019-05-12T04:52:54.902Z,2.70
2019-05-12T04:55:25.617Z,2.77
2019-05-12T04:57:54.565Z,2.53
2019-05-12T05:00:25.412Z,3.07
2019-05-12T05:02:54.391Z,2.53
2019-05-12T05:05:24.825Z,2.83
2019-05-12T05:07:54.847Z,2.50
2019-05-12T05:10:24.971Z,2.77
2019-05-12T05:12:54.085Z,2.73
2019-05-12T05:15:24.962Z,2.70
2019-05-12T05:17:54.483Z,2.80
2019-05-12T05:20:23.966Z,2.40
2019-05-12T05:22:54.095Z,2.80
2019-05-12T05:25:23.692Z,2.40
2019-05-12T05:27:53.287Z,2.93
2019-05-12T05:30:24.217Z,2.70
2019-05-12T05:32:53.559Z,2.80
2019-05-12T05:35:23.731Z,2.70
2019-05-12T05:37:53.885Z,2.97
2019-05-12T05:40:28.478Z,2.87
2019-05-12T05:42:54.150Z,2.73
2019-05-12T05:45:25.904Z,3.00
2019-05-12T05:47:54.284Z,2.93
2019-05-12T05:50:24.969Z,3.00
2019-05-12T05:52:54.129Z,2.87
2019-05-12T05:55:23.343Z,2.77
2019-05-12T05:57:53.532Z,2.87
2019-05-12T06:00:25.719Z,2.70
2019-05-12T06:02:51.720Z,2.93
2019-05-12T06:05:26.452Z,2.80
2019-05-12T06:07:53.575Z,3.00
2019-05-12T06:10:34.575Z,2.50
2019-05-12T06:12:51.362Z,2.43
2019-05-12T06:15:20.462Z,2.47
2019-05-12T06:17:48.534Z,2.57
2019-05-12T06:20:17.085Z,2.43
2019-05-12T06:22:48.537Z,2.80
2019-05-12T06:25:16.321Z,2.90
2019-05-12T06:27:44.676Z,3.03
2019-05-12T06:30:14.729Z,3.07
2019-05-12T06:32:50.053Z,2.47
2019-05-12T06:35:15.075Z,2.73
2019-05-12T06:37:57.299Z,2.60
2019-05-12T06:40:15.758Z,3.07
2019-05-12T06:42:48.381Z,2.70
2019-05-12T06:45:14.274Z,2.90
2019-05-12T06:47:47.487Z,2.53
2019-05-12T06:50:14.590Z,2.90
2019-05-12T06:52:46.827Z,2.80
2019-05-12T06:55:14.568Z,2.30
2019-05-12T06:57:45.840Z,2.57
2019-05-12T07:00:14.613Z,3.00
2019-05-12T07:02:51.687Z,2.90
2019-05-12T07:05:14.724Z,3.10
2019-05-12T07:07:45.993Z,3.17
2019-05-12T07:10:35.125Z,2.77
2019-05-12T07:12:57.689Z,2.60
2019-05-12T07:15:14.401Z,3.13
2019-05-12T07:17:49.719Z,3.07
2019-05-12T07:20:18.182Z,2.97
2019-05-12T07:22:48.646Z,2.77
2019-05-12T07:25:16.583Z,2.67
2019-05-12T07:27:53.662Z,2.97
2019-05-12T07:30:25.457Z,2.60
2019-05-12T07:32:59.655Z,3.00
2019-05-12T07:35:25.677Z,2.67
2019-05-12T07:37:56.297Z,2.73
2019-05-12T07:40:30.006Z,2.33
2019-05-12T07:42:57.254Z,2.70
2019-05-12T07:45:25.650Z,2.67
2019-05-12T07:47:54.224Z,2.40
2019-05-12T07:50:26.526Z,2.43
2019-05-12T07:52:54.267Z,2.50
2019-05-12T07:55:23.699Z,3.30
2019-05-12T07:57:56.020Z,3.17
2019-05-12T08:00:25.166Z,2.50
2019-05-12T08:02:54.009Z,2.90
2019-05-12T08:05:23.895Z,2.33
2019-05-12T08:07:53.580Z,2.40
2019-05-12T08:10:23.457Z,2.60
2019-05-12T08:12:59.587Z,2.10
2019-05-12T08:15:24.666Z,2.63
2019-05-12T08:17:57.714Z,2.50
2019-05-12T08:20:23.933Z,2.70
2019-05-12T08:22:54.095Z,2.20
2019-05-12T08:25:27.075Z,2.30
2019-05-12T08:28:04.189Z,2.43
2019-05-12T08:30:33.646Z,2.30
2019-05-12T08:33:03.851Z,2.70
2019-05-12T08:35:35.180Z,2.30
2019-05-12T08:38:03.915Z,2.53
2019-05-12T08:40:34.115Z,2.47
2019-05-12T08:43:07.951Z,2.17
2019-05-12T08:45:37.069Z,2.37
2019-05-12T08:48:03.975Z,2.13
2019-05-12T08:50:35.405Z,1.73
2019-05-12T08:53:04.615Z,2.00
2019-05-12T08:55:35.684Z,1.73
2019-05-12T08:58:03.876Z,1.90
2019-05-12T09:00:46.387Z,2.57
2019-05-12T09:03:09.173Z,2.40
2019-05-12T09:05:38.916Z,2.13
2019-05-12T09:08:07.405Z,2.43
2019-05-12T09:10:35.615Z,1.97
2019-05-12T09:13:04.306Z,2.10
2019-05-12T09:15:34.626Z,1.90
2019-05-12T09:18:04.854Z,1.90
2019-05-12T09:20:33.214Z,1.70
2019-05-12T09:23:02.772Z,2.10
2019-05-12T09:25:34.056Z,1.77
2019-05-12T09:28:03.885Z,1.70
2019-05-12T09:30:33.697Z,2.10
2019-05-12T09:33:04.133Z,2.30
2019-05-12T09:35:34.834Z,2.27
2019-05-12T09:38:05.366Z,2.10
2019-05-12T09:40:34.935Z,2.07
2019-05-12T09:43:06.332Z,2.40
2019-05-12T09:45:34.658Z,1.90
2019-05-12T09:48:04.727Z,2.20
2019-05-12T09:50:34.078Z,1.87
2019-05-12T09:53:07.051Z,2.07
2019-05-12T09:55:34.305Z,1.60
2019-05-12T09:58:03.961Z,2.10
2019-05-12T10:00:36.042Z,1.70
2019-05-12T10:03:04.525Z,1.80
2019-05-12T10:05:37.551Z,1.80
2019-05-12T10:08:04.476Z,2.07
2019-05-12T10:10:38.239Z,2.10
2019-05-12T10:13:04.570Z,2.00
2019-05-12T10:15:33.367Z,2.03
2019-05-12T10:18:06.638Z,1.90
2019-05-12T10:20:35.276Z,2.17
2019-05-12T10:23:04.080Z,2.23
2019-05-12T10:25:33.704Z,2.13
2019-05-12T10:28:03.050Z,2.23
2019-05-12T10:30:34.057Z,1.90
2019-05-12T10:33:03.842Z,1.67
2019-05-12T10:35:35.114Z,1.80
2019-05-12T10:38:06.208Z,2.20
2019-05-12T10:40:34.015Z,1.63
2019-05-12T10:43:04.490Z,2.50
2019-05-12T10:45:34.119Z,2.33
2019-05-12T10:48:03.650Z,2.30
2019-05-12T10:50:34.086Z,2.03
2019-05-12T10:53:04.222Z,2.17
2019-05-12T10:55:33.531Z,2.13
2019-05-12T10:58:06.654Z,2.27
2019-05-12T11:00:33.831Z,2.10
2019-05-12T11:03:10.226Z,2.20
2019-05-12T11:05:33.925Z,1.87
2019-05-12T11:08:06.506Z,2.17
2019-05-12T11:10:32.064Z,2.33
2019-05-12T11:13:07.513Z,1.90
2019-05-12T11:15:30.597Z,2.13
2019-05-12T11:18:07.348Z,1.93
2019-05-12T11:20:35.534Z,1.90
2019-05-12T11:23:03.847Z,2.20
2019-05-12T11:25:34.095Z,2.30
2019-05-12T11:28:03.793Z,2.23
2019-05-12T11:30:34.284Z,2.17
2019-05-12T11:33:04.274Z,2.20
2019-05-12T11:35:33.121Z,2.73
2019-05-12T11:38:04.511Z,1.97
2019-05-12T11:40:34.805Z,2.03
2019-05-12T11:43:04.102Z,1.93
2019-05-12T11:45:33.606Z,2.03
2019-05-12T11:48:07.990Z,2.10
2019-05-12T11:50:32.551Z,2.10
2019-05-12T11:53:00.763Z,2.10
2019-05-12T11:55:31.519Z,2.27
2019-05-12T11:58:00.468Z,2.00
2019-05-12T12:00:30.971Z,1.80
2019-05-12T12:03:03.687Z,2.37
2019-05-12T12:05:29.173Z,2.23
2019-05-12T12:07:57.286Z,2.00
2019-05-12T12:10:29.195Z,1.90
2019-05-12T12:12:55.356Z,2.30
2019-05-12T12:15:26.343Z,2.33
2019-05-12T12:17:53.693Z,2.30
2019-05-12T12:20:24.165Z,2.20
2019-05-12T12:22:54.113Z,2.00
2019-05-12T12:25:26.796Z,2.30
2019-05-12T12:27:54.978Z,1.70
2019-05-12T12:30:23.735Z,2.30
2019-05-12T12:32:57.115Z,2.50
2019-05-12T12:35:23.414Z,2.37
2019-05-12T12:37:53.935Z,1.90
2019-05-12T12:40:21.952Z,1.80
2019-05-12T12:42:50.152Z,2.50
2019-05-12T12:45:24.353Z,2.33
2019-05-12T12:47:54.059Z,1.90
2019-05-12T12:50:26.305Z,2.07
2019-05-12T12:52:53.477Z,2.13
2019-05-12T12:55:23.405Z,2.03
2019-05-12T12:57:52.598Z,2.00
2019-05-12T13:00:29.717Z,2.40
2019-05-12T13:02:50.991Z,1.70
2019-05-12T13:05:19.054Z,2.03
2019-05-12T13:07:47.403Z,2.10
2019-05-12T13:10:15.897Z,2.03
2019-05-12T13:12:43.980Z,1.90
2019-05-12T13:15:14.452Z,2.20
2019-05-12T13:17:44.769Z,1.90
2019-05-12T13:20:13.439Z,2.00
2019-05-12T13:22:44.221Z,1.90
2019-05-12T13:25:14.033Z,1.40
2019-05-12T13:27:44.712Z,1.97
2019-05-12T13:30:19.869Z,1.73
2019-05-12T13:32:44.836Z,1.70
2019-05-12T13:35:16.642Z,1.80
2019-05-12T13:37:43.474Z,2.33
2019-05-12T13:40:11.980Z,1.80
2019-05-12T13:42:40.059Z,1.90
2019-05-12T13:45:15.979Z,2.00
2019-05-12T13:47:43.825Z,1.80
2019-05-12T13:50:21.473Z,1.70
2019-05-12T13:52:50.113Z,1.83
2019-05-12T13:55:21.237Z,1.97
2019-05-12T13:57:53.109Z,1.87
2019-05-12T14:00:20.467Z,2.20
2019-05-12T14:02:49.082Z,1.73
2019-05-12T14:05:17.539Z,1.90
2019-05-12T14:07:50.049Z,1.93
2019-05-12T14:10:20.598Z,2.30
2019-05-12T14:12:48.969Z,1.90
2019-05-12T14:15:17.504Z,2.07
2019-05-12T14:17:45.781Z,1.97
2019-05-12T14:20:20.002Z,2.50
2019-05-12T14:22:46.242Z,2.13
2019-05-12T14:25:15.207Z,1.60
2019-05-12T14:27:44.595Z,1.90
2019-05-12T14:30:14.501Z,1.70
2019-05-12T14:32:43.977Z,2.00
2019-05-12T14:35:12.719Z,2.13
2019-05-12T14:37:45.901Z,1.80
2019-05-12T14:40:13.521Z,2.10
2019-05-12T14:42:44.344Z,2.00
2019-05-12T14:45:13.888Z,2.10
2019-05-12T14:47:44.080Z,2.10
2019-05-12T14:50:14.081Z,1.67
2019-05-12T14:52:43.931Z,2.10
2019-05-12T14:55:13.867Z,2.10
2019-05-12T14:57:42.524Z,2.00
2019-05-12T15:00:17.363Z,2.40
2019-05-12T15:02:44.193Z,2.63
2019-05-12T15:05:13.966Z,1.80
2019-05-12T15:07:50.949Z,2.30
2019-05-12T15:10:15.301Z,2.20
2019-05-12T15:12:44.288Z,2.07
2019-05-12T15:15:18.353Z,2.03
2019-05-12T15:17:44.411Z,1.90
2019-05-12T15:20:13.902Z,1.93
2019-05-12T15:22:51.769Z,2.30
2019-05-12T15:25:14.584Z,2.90
2019-05-12T15:27:46.080Z,2.20
2019-05-12T15:30:22.837Z,2.70
2019-05-12T15:32:44.563Z,2.20
2019-05-12T15:35:13.740Z,2.27
2019-05-12T15:37:43.680Z,2.53
2019-05-12T15:40:14.454Z,2.30
2019-05-12T15:42:44.965Z,2.20
2019-05-12T15:45:16.455Z,2.37
2019-05-12T15:47:44.517Z,2.50
2019-05-12T15:50:14.636Z,2.50
2019-05-12T15:52:45.709Z,2.20
2019-05-12T15:55:13.871Z,1.90
2019-05-12T15:57:43.997Z,2.23
2019-05-12T16:00:17.047Z,1.87
2019-05-12T16:02:44.401Z,1.93
2019-05-12T16:05:14.648Z,1.70
2019-05-12T16:07:43.646Z,1.90
2019-05-12T16:10:14.487Z,1.60
2019-05-12T16:12:43.447Z,1.67
2019-05-12T16:15:17.339Z,1.80
2019-05-12T16:17:44.105Z,1.60
2019-05-12T16:20:14.227Z,2.10
2019-05-12T16:22:45.109Z,1.70
2019-05-12T16:25:15.286Z,2.00
2019-05-12T16:27:44.417Z,2.53
2019-05-12T16:30:13.957Z,1.90
2019-05-12T16:32:46.971Z,1.80
2019-05-12T16:35:14.521Z,2.27
2019-05-12T16:37:44.332Z,2.30
2019-05-12T16:40:13.810Z,3.00
2019-05-12T16:42:48.322Z,2.37
2019-05-12T16:45:14.193Z,2.30
2019-05-12T16:47:44.667Z,2.47
2019-05-12T16:50:15.938Z,2.70
2019-05-12T16:52:45.459Z,2.60
2019-05-12T16:55:13.588Z,2.30
2019-05-12T16:57:47.480Z,2.20
2019-05-12T17:00:13.818Z,2.10
2019-05-12T17:02:52.191Z,2.67
2019-05-12T17:05:20.103Z,2.47
2019-05-12T17:07:44.169Z,2.27
2019-05-12T17:10:16.665Z,2.50
2019-05-12T17:12:48.292Z,2.03
2019-05-12T17:15:15.320Z,2.50
2019-05-12T17:17:44.660Z,2.90
2019-05-12T17:20:14.334Z,2.57
2019-05-12T17:22:45.743Z,2.10
2019-05-12T17:25:15.494Z,2.77
2019-05-12T17:27:44.863Z,2.43
2019-05-12T17:30:13.854Z,2.70
2019-05-12T17:32:54.876Z,2.47
2019-05-12T17:35:13.930Z,2.20
2019-05-12T17:37:42.392Z,2.33
2019-05-12T17:40:17.686Z,2.80
2019-05-12T17:42:40.852Z,2.07
2019-05-12T17:45:09.412Z,2.50
2019-05-12T17:47:39.130Z,2.00
2019-05-12T17:50:10.269Z,2.67
2019-05-12T17:52:37.784Z,2.60
2019-05-12T17:55:10.620Z,2.27
2019-05-12T17:57:37.650Z,2.43
2019-05-12T18:00:10.582Z,2.07
2019-05-12T18:02:37.425Z,2.30
2019-05-12T18:05:07.620Z,3.00
2019-05-12T18:07:35.846Z,2.53
2019-05-12T18:10:04.947Z,2.47
2019-05-12T18:12:36.607Z,2.43
2019-05-12T18:15:04.387Z,2.43
2019-05-12T18:17:33.885Z,2.90
2019-05-12T18:20:04.120Z,2.07
2019-05-12T18:22:33.959Z,2.80
2019-05-12T18:25:04.334Z,3.00
2019-05-12T18:27:34.993Z,2.57
2019-05-12T18:30:04.484Z,2.30
2019-05-12T18:32:32.642Z,2.70
2019-05-12T18:35:00.785Z,2.50
2019-05-12T18:37:28.895Z,2.40
2019-05-12T18:39:57.018Z,2.80
2019-05-12T18:42:25.096Z,2.37
2019-05-12T18:44:54.617Z,2.70
2019-05-12T18:47:31.642Z,2.93
2019-05-12T18:49:53.806Z,2.50
2019-05-12T18:52:23.608Z,2.67
2019-05-12T18:54:56.620Z,2.40
2019-05-12T18:57:23.803Z,2.93
2019-05-12T18:59:55.078Z,2.67
2019-05-12T19:02:23.285Z,2.40
2019-05-12T19:04:53.894Z,2.50
2019-05-12T19:07:35.897Z,2.63
2019-05-12T19:09:52.218Z,3.13
2019-05-12T19:12:31.930Z,2.77
2019-05-12T19:14:54.698Z,2.97
2019-05-12T19:17:24.147Z,2.93
2019-05-12T19:19:59.637Z,3.00
2019-05-12T19:22:24.322Z,2.70
2019-05-12T19:24:56.451Z,2.90
2019-05-12T19:27:24.050Z,3.17
2019-05-12T19:29:54.426Z,3.10
2019-05-12T19:32:27.931Z,3.30
2019-05-12T19:34:54.582Z,3.10
2019-05-12T19:37:26.465Z,3.20
2019-05-12T19:39:53.991Z,3.23
2019-05-12T19:42:24.465Z,3.00
2019-05-12T19:44:55.878Z,3.30
2019-05-12T19:47:33.528Z,2.90
2019-05-12T19:49:53.550Z,3.07
2019-05-12T19:52:24.233Z,3.03
2019-05-12T19:54:51.968Z,3.30
2019-05-12T19:57:23.470Z,3.63
2019-05-12T19:59:52.563Z,3.10
2019-05-12T20:02:23.571Z,2.90
2019-05-12T20:04:51.851Z,2.83
2019-05-12T20:07:23.200Z,3.23
2019-05-12T20:09:55.890Z,3.00
2019-05-12T20:12:23.973Z,3.00
2019-05-12T20:14:56.946Z,3.60
2019-05-12T20:17:24.177Z,2.83
2019-05-12T20:19:54.009Z,3.80
2019-05-12T20:22:24.105Z,3.00
2019-05-12T20:24:53.710Z,3.37
2019-05-12T20:27:24.593Z,3.77
2019-05-12T20:29:54.016Z,3.10
2019-05-12T20:32:24.079Z,3.70
2019-05-12T20:34:55.273Z,3.47
2019-05-12T20:37:22.316Z,3.93
2019-05-12T20:40:00.201Z,3.53
2019-05-12T20:42:23.678Z,3.53
2019-05-12T20:44:57.839Z,3.70
2019-05-12T20:47:23.399Z,3.70
2019-05-12T20:49:52.847Z,3.97
2019-05-12T20:52:23.618Z,4.47
2019-05-12T20:54:55.371Z,3.70
2019-05-12T20:57:23.653Z,3.53
2019-05-12T20:59:51.710Z,3.70
2019-05-12T21:02:19.809Z,3.50
2019-05-12T21:05:00.066Z,3.97
2019-05-12T21:07:21.910Z,3.77
2019-05-12T21:09:48.419Z,3.50
2019-05-12T21:12:16.796Z,3.70
2019-05-12T21:14:51.690Z,3.40
2019-05-12T21:17:18.371Z,3.43
2019-05-12T21:20:05.244Z,3.90
2019-05-12T21:22:34.320Z,3.37
2019-05-12T21:25:04.140Z,4.00
2019-05-12T21:27:33.537Z,3.47
2019-05-12T21:30:09.861Z,4.17
2019-05-12T21:32:33.764Z,3.40
2019-05-12T21:35:15.739Z,3.63
2019-05-12T21:37:38.670Z,3.13
2019-05-12T21:40:06.246Z,3.97
2019-05-12T21:42:34.385Z,3.43
2019-05-12T21:45:04.547Z,3.90
2019-05-12T21:47:36.346Z,4.13
2019-05-12T21:50:04.657Z,3.83
2019-05-12T21:52:37.275Z,3.40
2019-05-12T21:55:03.841Z,4.03
2019-05-12T21:57:34.570Z,4.20
2019-05-12T22:00:04.751Z,3.60
2019-05-12T22:02:34.982Z,3.90
2019-05-12T22:05:04.192Z,3.90
2019-05-12T22:07:35.522Z,4.00
2019-05-12T22:10:04.814Z,3.40
2019-05-12T22:12:34.321Z,3.53
2019-05-12T22:15:03.760Z,3.70
2019-05-12T22:17:54.278Z,4.10
2019-05-12T22:20:23.690Z,4.10
2019-05-12T22:22:51.849Z,3.60
2019-05-12T22:25:20.041Z,4.03
2019-05-12T22:27:48.195Z,3.80
2019-05-12T22:30:16.263Z,4.43
2019-05-12T22:32:44.487Z,3.70
2019-05-12T22:35:21.658Z,4.03
2019-05-12T22:37:42.541Z,3.60
2019-05-12T22:40:17.271Z,3.97
2019-05-12T22:42:40.568Z,4.07
2019-05-12T22:45:09.831Z,3.97
2019-05-12T22:47:39.019Z,3.97
2019-05-12T22:50:07.328Z,3.90
2019-05-12T22:52:39.006Z,4.13
2019-05-12T22:55:06.815Z,3.93
2019-05-12T22:57:40.126Z,4.20
2019-05-12T23:00:07.681Z,3.83
2019-05-12T23:02:37.628Z,4.27
2019-05-12T23:05:10.326Z,4.43
2019-05-12T23:07:36.251Z,4.23
2019-05-12T23:10:10.886Z,4.23
2019-05-12T23:12:36.610Z,3.63
2019-05-12T23:15:07.269Z,4.57
2019-05-12T23:17:38.966Z,3.83
2019-05-12T23:20:07.704Z,4.20
2019-05-12T23:22:36.856Z,3.40
2019-05-12T23:25:05.529Z,3.63
2019-05-12T23:27:34.093Z,3.73
2019-05-12T23:30:10.868Z,4.17
2019-05-12T23:32:34.558Z,4.13
2019-05-12T23:35:03.963Z,3.90
2019-05-12T23:37:38.352Z,3.50
2019-05-12T23:40:04.335Z,3.60
2019-05-12T23:42:34.278Z,4.53
2019-05-12T23:45:03.605Z,4.53
2019-05-12T23:47:33.899Z,3.87
2019-05-12T23:50:04.042Z,4.57
2019-05-12T23:52:31.843Z,4.37
2019-05-12T23:54:59.860Z,4.43
2019-05-12T23:57:27.971Z,4.30
2019-05-12T23:59:56.013Z,4.67
